Jacinto Machado, Brazil
Current Conditions -  °F | °C
As of 2:00 PM on Saturday 25 Oct 2014 (Local Time) from SBCM Reporting Station
Broken Clouds Broken Clouds  
Wind Chill: 77°   Ceiling: 1500
Heat Index: 79°   Visibility: 6mi
Dew Point: 66°   Wind: 6mph
Humidity: 69%   Direction: 240°WSW
Pressure: 29.91"   Gusts: NA
Location:  29°S, 49.76°W
Report Text: SBCM 251600Z 24005KT 9999 BKN015 25/19 Q1013
Loading
Personal Weather Stations






























Interactive Weather Map
Tropical Storm Tracking
New forecast layout! Learn more

10-Day Weather Forecast

Advertisements
Track Severe Weather on mobile